sensor_id;sensor_type;location;lat;lon;timestamp;P1;durP1;ratioP1;P2;durP2;ratioP2
75689;SDS011;64303;53.118;9.044;2022-11-11T00:00:04;10.68;;;4.30;;
75689;SDS011;64303;53.118;9.044;2022-11-11T00:03:11;9.50;;;4.40;;
75689;SDS011;64303;53.118;9.044;2022-11-11T00:05:59;6.85;;;2.72;;
75689;SDS011;64303;53.118;9.044;2022-11-11T00:08:46;8.90;;;3.60;;
75689;SDS011;64303;53.118;9.044;2022-11-11T00:11:35;6.53;;;5.13;;
75689;SDS011;64303;53.118;9.044;2022-11-11T00:14:21;5.60;;;3.72;;
75689;SDS011;64303;53.118;9.044;2022-11-11T00:17:08;5.97;;;3.55;;
75689;SDS011;64303;53.118;9.044;2022-11-11T00:20:12;5.57;;;4.32;;
75689;SDS011;64303;53.118;9.044;2022-11-11T00:23:19;8.50;;;3.85;;
75689;SDS011;64303;53.118;9.044;2022-11-11T00:26:22;7.38;;;3.88;;
75689;SDS011;64303;53.118;9.044;2022-11-11T00:29:11;6.43;;;3.78;;
75689;SDS011;64303;53.118;9.044;2022-11-11T00:31:57;7.97;;;2.92;;
75689;SDS011;64303;53.118;9.044;2022-11-11T00:35:00;11.63;;;3.70;;
75689;SDS011;64303;53.118;9.044;2022-11-11T00:38:06;7.68;;;3.88;;
75689;SDS011;64303;53.118;9.044;2022-11-11T00:40:52;7.85;;;4.15;;
75689;SDS011;64303;53.118;9.044;2022-11-11T00:43:37;8.88;;;5.22;;
75689;SDS011;64303;53.118;9.044;2022-11-11T00:46:24;8.30;;;4.47;;
75689;SDS011;64303;53.118;9.044;2022-11-11T00:49:28;7.40;;;4.53;;
75689;SDS011;64303;53.118;9.044;2022-11-11T00:52:31;8.30;;;4.07;;
75689;SDS011;64303;53.118;9.044;2022-11-11T00:55:17;5.88;;;3.67;;
75689;SDS011;64303;53.118;9.044;2022-11-11T00:58:02;7.60;;;4.80;;
75689;SDS011;64303;53.118;9.044;2022-11-11T01:00:47;7.15;;;4.95;;
75689;SDS011;64303;53.118;9.044;2022-11-11T01:03:37;8.38;;;4.97;;
75689;SDS011;64303;53.118;9.044;2022-11-11T01:06:23;8.85;;;3.95;;
75689;SDS011;64303;53.118;9.044;2022-11-11T01:09:08;11.32;;;5.20;;
75689;SDS011;64303;53.118;9.044;2022-11-11T01:11:53;5.40;;;4.63;;
75689;SDS011;64303;53.118;9.044;2022-11-11T01:14:38;6.72;;;4.95;;
75689;SDS011;64303;53.118;9.044;2022-11-11T01:17:24;6.55;;;4.22;;
75689;SDS011;64303;53.118;9.044;2022-11-11T01:20:11;7.95;;;4.75;;
75689;SDS011;64303;53.118;9.044;2022-11-11T01:22:56;6.32;;;3.83;;
75689;SDS011;64303;53.118;9.044;2022-11-11T01:25:42;7.78;;;5.25;;
75689;SDS011;64303;53.118;9.044;2022-11-11T01:28:27;8.73;;;5.25;;
75689;SDS011;64303;53.118;9.044;2022-11-11T01:31:13;8.23;;;4.30;;
75689;SDS011;64303;53.118;9.044;2022-11-11T01:33:59;7.70;;;4.90;;
75689;SDS011;64303;53.118;9.044;2022-11-11T01:36:45;5.25;;;3.38;;
75689;SDS011;64303;53.118;9.044;2022-11-11T01:39:31;10.88;;;6.18;;
75689;SDS011;64303;53.118;9.044;2022-11-11T01:42:16;6.68;;;4.22;;
75689;SDS011;64303;53.118;9.044;2022-11-11T01:48:23;8.57;;;3.90;;
75689;SDS011;64303;53.118;9.044;2022-11-11T01:51:33;6.50;;;4.20;;
75689;SDS011;64303;53.118;9.044;2022-11-11T01:54:23;4.93;;;4.15;;
75689;SDS011;64303;53.118;9.044;2022-11-11T01:57:12;8.15;;;7.38;;
75689;SDS011;64303;53.118;9.044;2022-11-11T02:00:00;7.22;;;4.65;;
75689;SDS011;64303;53.118;9.044;2022-11-11T02:02:49;9.23;;;5.63;;
75689;SDS011;64303;53.118;9.044;2022-11-11T02:05:36;6.72;;;4.72;;
75689;SDS011;64303;53.118;9.044;2022-11-11T02:08:31;9.45;;;4.97;;
75689;SDS011;64303;53.118;9.044;2022-11-11T02:11:19;9.48;;;4.55;;
75689;SDS011;64303;53.118;9.044;2022-11-11T02:14:20;7.32;;;4.00;;
75689;SDS011;64303;53.118;9.044;2022-11-11T02:17:20;5.70;;;5.00;;
75689;SDS011;64303;53.118;9.044;2022-11-11T02:20:06;7.72;;;5.70;;
75689;SDS011;64303;53.118;9.044;2022-11-11T02:22:55;10.07;;;4.25;;
75689;SDS011;64303;53.118;9.044;2022-11-11T02:25:45;8.02;;;4.55;;
75689;SDS011;64303;53.118;9.044;2022-11-11T02:28:32;8.73;;;5.25;;
75689;SDS011;64303;53.118;9.044;2022-11-11T02:31:17;9.25;;;5.53;;
75689;SDS011;64303;53.118;9.044;2022-11-11T02:34:02;8.80;;;5.53;;
75689;SDS011;64303;53.118;9.044;2022-11-11T02:36:47;10.30;;;4.63;;
75689;SDS011;64303;53.118;9.044;2022-11-11T02:39:33;8.07;;;6.10;;
75689;SDS011;64303;53.118;9.044;2022-11-11T02:42:21;9.23;;;8.52;;
75689;SDS011;64303;53.118;9.044;2022-11-11T02:45:07;7.72;;;7.03;;
75689;SDS011;64303;53.118;9.044;2022-11-11T02:47:53;8.48;;;5.40;;
75689;SDS011;64303;53.118;9.044;2022-11-11T02:50:38;12.43;;;10.85;;
75689;SDS011;64303;53.118;9.044;2022-11-11T02:53:23;9.90;;;5.47;;
75689;SDS011;64303;53.118;9.044;2022-11-11T02:56:09;5.25;;;4.65;;
75689;SDS011;64303;53.118;9.044;2022-11-11T02:58:56;10.13;;;6.00;;
75689;SDS011;64303;53.118;9.044;2022-11-11T03:01:41;8.75;;;6.63;;
75689;SDS011;64303;53.118;9.044;2022-11-11T03:04:27;6.78;;;4.95;;
75689;SDS011;64303;53.118;9.044;2022-11-11T03:07:12;8.25;;;5.60;;
75689;SDS011;64303;53.118;9.044;2022-11-11T03:09:57;8.60;;;7.75;;
75689;SDS011;64303;53.118;9.044;2022-11-11T03:12:42;8.77;;;6.10;;
75689;SDS011;64303;53.118;9.044;2022-11-11T03:15:29;9.82;;;4.55;;
75689;SDS011;64303;53.118;9.044;2022-11-11T03:18:14;13.18;;;7.57;;
75689;SDS011;64303;53.118;9.044;2022-11-11T03:20:59;13.23;;;9.30;;
75689;SDS011;64303;53.118;9.044;2022-11-11T03:23:50;8.77;;;4.97;;
75689;SDS011;64303;53.118;9.044;2022-11-11T03:26:36;7.85;;;4.97;;
75689;SDS011;64303;53.118;9.044;2022-11-11T03:29:21;7.75;;;5.18;;
75689;SDS011;64303;53.118;9.044;2022-11-11T03:32:08;8.68;;;5.00;;
75689;SDS011;64303;53.118;9.044;2022-11-11T03:34:54;8.02;;;6.40;;
75689;SDS011;64303;53.118;9.044;2022-11-11T03:37:39;7.85;;;5.82;;
75689;SDS011;64303;53.118;9.044;2022-11-11T03:40:42;9.70;;;5.43;;
75689;SDS011;64303;53.118;9.044;2022-11-11T03:43:29;8.10;;;4.80;;
75689;SDS011;64303;53.118;9.044;2022-11-11T03:46:15;8.13;;;5.38;;
75689;SDS011;64303;53.118;9.044;2022-11-11T03:49:01;7.47;;;5.35;;
75689;SDS011;64303;53.118;9.044;2022-11-11T03:51:47;13.02;;;6.28;;
75689;SDS011;64303;53.118;9.044;2022-11-11T03:54:32;9.70;;;5.28;;
75689;SDS011;64303;53.118;9.044;2022-11-11T03:57:18;12.82;;;6.28;;
75689;SDS011;64303;53.118;9.044;2022-11-11T04:00:16;8.52;;;7.25;;
75689;SDS011;64303;53.118;9.044;2022-11-11T04:03:04;8.75;;;5.63;;
75689;SDS011;64303;53.118;9.044;2022-11-11T04:06:10;10.38;;;6.78;;
75689;SDS011;64303;53.118;9.044;2022-11-11T04:09:13;10.20;;;5.30;;
75689;SDS011;64303;53.118;9.044;2022-11-11T04:12:16;7.72;;;5.22;;
75689;SDS011;64303;53.118;9.044;2022-11-11T04:15:02;10.95;;;6.13;;
75689;SDS011;64303;53.118;9.044;2022-11-11T04:18:05;8.05;;;6.88;;
75689;SDS011;64303;53.118;9.044;2022-11-11T04:20:50;11.90;;;7.07;;
75689;SDS011;64303;53.118;9.044;2022-11-11T04:23:55;8.80;;;5.30;;
75689;SDS011;64303;53.118;9.044;2022-11-11T04:26:40;7.63;;;6.07;;
75689;SDS011;64303;53.118;9.044;2022-11-11T04:29:24;9.05;;;5.38;;
75689;SDS011;64303;53.118;9.044;2022-11-11T04:32:13;7.63;;;4.28;;
75689;SDS011;64303;53.118;9.044;2022-11-11T04:35:17;12.05;;;5.70;;
75689;SDS011;64303;53.118;9.044;2022-11-11T04:38:02;7.10;;;5.75;;
75689;SDS011;64303;53.118;9.044;2022-11-11T04:41:08;6.68;;;5.20;;
75689;SDS011;64303;53.118;9.044;2022-11-11T04:43:55;10.18;;;8.20;;
75689;SDS011;64303;53.118;9.044;2022-11-11T04:46:58;10.20;;;5.43;;
75689;SDS011;64303;53.118;9.044;2022-11-11T04:49:44;7.50;;;4.80;;
75689;SDS011;64303;53.118;9.044;2022-11-11T04:52:30;8.40;;;5.95;;
75689;SDS011;64303;53.118;9.044;2022-11-11T04:55:16;11.48;;;8.13;;
75689;SDS011;64303;53.118;9.044;2022-11-11T04:58:21;9.18;;;6.35;;
75689;SDS011;64303;53.118;9.044;2022-11-11T05:01:08;9.55;;;5.40;;
75689;SDS011;64303;53.118;9.044;2022-11-11T05:03:53;10.75;;;6.15;;
75689;SDS011;64303;53.118;9.044;2022-11-11T05:06:37;8.45;;;5.93;;
75689;SDS011;64303;53.118;9.044;2022-11-11T05:09:40;9.63;;;6.18;;
75689;SDS011;64303;53.118;9.044;2022-11-11T05:12:25;10.32;;;5.95;;
75689;SDS011;64303;53.118;9.044;2022-11-11T05:15:12;9.00;;;6.05;;
75689;SDS011;64303;53.118;9.044;2022-11-11T05:18:15;10.65;;;7.15;;
75689;SDS011;64303;53.118;9.044;2022-11-11T05:21:18;7.68;;;5.78;;
75689;SDS011;64303;53.118;9.044;2022-11-11T05:24:04;9.77;;;7.32;;
75689;SDS011;64303;53.118;9.044;2022-11-11T05:27:08;7.95;;;6.00;;
75689;SDS011;64303;53.118;9.044;2022-11-11T05:29:53;8.73;;;5.13;;
75689;SDS011;64303;53.118;9.044;2022-11-11T05:32:40;8.68;;;6.20;;
75689;SDS011;64303;53.118;9.044;2022-11-11T05:35:26;8.85;;;6.00;;
75689;SDS011;64303;53.118;9.044;2022-11-11T05:38:12;9.10;;;5.57;;
75689;SDS011;64303;53.118;9.044;2022-11-11T05:41:06;9.38;;;6.20;;
75689;SDS011;64303;53.118;9.044;2022-11-11T05:43:52;9.13;;;6.97;;
75689;SDS011;64303;53.118;9.044;2022-11-11T05:46:38;9.25;;;6.53;;
75689;SDS011;64303;53.118;9.044;2022-11-11T05:49:25;12.98;;;7.85;;
75689;SDS011;64303;53.118;9.044;2022-11-11T05:52:10;9.77;;;5.60;;
75689;SDS011;64303;53.118;9.044;2022-11-11T05:57:41;14.30;;;5.60;;
75689;SDS011;64303;53.118;9.044;2022-11-11T06:00:27;13.40;;;7.95;;
75689;SDS011;64303;53.118;9.044;2022-11-11T06:03:13;12.02;;;7.05;;
75689;SDS011;64303;53.118;9.044;2022-11-11T06:06:00;13.18;;;7.82;;
75689;SDS011;64303;53.118;9.044;2022-11-11T06:08:45;11.18;;;6.68;;
75689;SDS011;64303;53.118;9.044;2022-11-11T06:11:31;17.02;;;9.55;;
75689;SDS011;64303;53.118;9.044;2022-11-11T06:14:17;12.25;;;9.40;;
75689;SDS011;64303;53.118;9.044;2022-11-11T06:17:02;11.20;;;7.75;;
75689;SDS011;64303;53.118;9.044;2022-11-11T06:19:48;14.60;;;9.02;;
75689;SDS011;64303;53.118;9.044;2022-11-11T06:22:35;13.65;;;7.70;;
75689;SDS011;64303;53.118;9.044;2022-11-11T06:25:38;10.48;;;8.05;;
75689;SDS011;64303;53.118;9.044;2022-11-11T06:28:42;12.18;;;7.45;;
75689;SDS011;64303;53.118;9.044;2022-11-11T06:31:29;13.68;;;9.00;;
75689;SDS011;64303;53.118;9.044;2022-11-11T06:34:14;15.63;;;9.23;;
75689;SDS011;64303;53.118;9.044;2022-11-11T06:36:59;15.55;;;10.02;;
75689;SDS011;64303;53.118;9.044;2022-11-11T06:39:46;15.38;;;8.73;;
75689;SDS011;64303;53.118;9.044;2022-11-11T06:42:34;13.02;;;9.73;;
75689;SDS011;64303;53.118;9.044;2022-11-11T06:45:20;14.48;;;8.90;;
75689;SDS011;64303;53.118;9.044;2022-11-11T06:48:06;16.65;;;10.57;;
75689;SDS011;64303;53.118;9.044;2022-11-11T06:50:52;12.02;;;8.85;;
75689;SDS011;64303;53.118;9.044;2022-11-11T06:53:38;14.80;;;8.48;;
75689;SDS011;64303;53.118;9.044;2022-11-11T06:56:24;12.68;;;9.13;;
75689;SDS011;64303;53.118;9.044;2022-11-11T06:59:10;15.85;;;10.60;;
75689;SDS011;64303;53.118;9.044;2022-11-11T07:01:55;15.38;;;9.60;;
75689;SDS011;64303;53.118;9.044;2022-11-11T07:04:40;16.67;;;10.38;;
75689;SDS011;64303;53.118;9.044;2022-11-11T07:07:26;13.38;;;8.45;;
75689;SDS011;64303;53.118;9.044;2022-11-11T07:10:13;14.60;;;9.20;;
75689;SDS011;64303;53.118;9.044;2022-11-11T07:13:01;14.05;;;10.15;;
75689;SDS011;64303;53.118;9.044;2022-11-11T07:15:47;13.73;;;9.73;;
75689;SDS011;64303;53.118;9.044;2022-11-11T07:18:32;17.38;;;9.75;;
75689;SDS011;64303;53.118;9.044;2022-11-11T07:21:17;18.15;;;10.23;;
75689;SDS011;64303;53.118;9.044;2022-11-11T07:24:03;16.90;;;10.60;;
75689;SDS011;64303;53.118;9.044;2022-11-11T07:26:48;13.35;;;8.50;;
75689;SDS011;64303;53.118;9.044;2022-11-11T07:29:35;24.40;;;11.20;;
75689;SDS011;64303;53.118;9.044;2022-11-11T07:32:21;16.60;;;11.70;;
75689;SDS011;64303;53.118;9.044;2022-11-11T07:35:07;18.58;;;10.73;;
75689;SDS011;64303;53.118;9.044;2022-11-11T07:37:52;16.33;;;9.80;;
75689;SDS011;64303;53.118;9.044;2022-11-11T07:40:38;14.85;;;10.65;;
75689;SDS011;64303;53.118;9.044;2022-11-11T07:43:23;17.50;;;10.25;;
75689;SDS011;64303;53.118;9.044;2022-11-11T07:46:10;17.70;;;8.98;;
75689;SDS011;64303;53.118;9.044;2022-11-11T07:48:55;19.38;;;10.50;;
75689;SDS011;64303;53.118;9.044;2022-11-11T07:51:41;15.52;;;10.50;;
75689;SDS011;64303;53.118;9.044;2022-11-11T07:54:27;14.93;;;10.32;;
75689;SDS011;64303;53.118;9.044;2022-11-11T07:57:12;12.98;;;9.00;;
75689;SDS011;64303;53.118;9.044;2022-11-11T07:59:58;19.55;;;11.02;;
75689;SDS011;64303;53.118;9.044;2022-11-11T08:02:46;14.73;;;11.32;;
75689;SDS011;64303;53.118;9.044;2022-11-11T08:05:32;19.17;;;11.18;;
75689;SDS011;64303;53.118;9.044;2022-11-11T08:08:17;18.60;;;10.07;;
75689;SDS011;64303;53.118;9.044;2022-11-11T08:11:07;18.05;;;10.70;;
75689;SDS011;64303;53.118;9.044;2022-11-11T08:13:53;20.10;;;11.80;;
75689;SDS011;64303;53.118;9.044;2022-11-11T08:16:37;13.68;;;10.88;;
75689;SDS011;64303;53.118;9.044;2022-11-11T08:19:24;20.63;;;11.25;;
75689;SDS011;64303;53.118;9.044;2022-11-11T08:22:09;17.08;;;10.85;;
75689;SDS011;64303;53.118;9.044;2022-11-11T08:24:55;14.88;;;10.07;;
75689;SDS011;64303;53.118;9.044;2022-11-11T08:27:40;14.35;;;10.70;;
75689;SDS011;64303;53.118;9.044;2022-11-11T08:33:11;17.65;;;8.60;;
75689;SDS011;64303;53.118;9.044;2022-11-11T08:35:58;18.35;;;10.63;;
75689;SDS011;64303;53.118;9.044;2022-11-11T08:38:44;13.07;;;8.77;;
75689;SDS011;64303;53.118;9.044;2022-11-11T08:41:30;18.20;;;10.35;;
75689;SDS011;64303;53.118;9.044;2022-11-11T08:44:16;18.33;;;10.18;;
75689;SDS011;64303;53.118;9.044;2022-11-11T08:47:01;15.02;;;10.32;;
75689;SDS011;64303;53.118;9.044;2022-11-11T08:49:46;17.30;;;11.82;;
75689;SDS011;64303;53.118;9.044;2022-11-11T08:52:35;22.58;;;11.25;;
75689;SDS011;64303;53.118;9.044;2022-11-11T08:55:20;14.80;;;12.10;;
75689;SDS011;64303;53.118;9.044;2022-11-11T08:58:06;18.08;;;8.90;;
75689;SDS011;64303;53.118;9.044;2022-11-11T09:00:51;15.38;;;9.23;;
75689;SDS011;64303;53.118;9.044;2022-11-11T09:03:37;10.95;;;7.82;;
75689;SDS011;64303;53.118;9.044;2022-11-11T09:06:22;11.82;;;8.80;;
75689;SDS011;64303;53.118;9.044;2022-11-11T09:09:09;12.73;;;8.73;;
75689;SDS011;64303;53.118;9.044;2022-11-11T09:11:55;13.43;;;9.15;;
75689;SDS011;64303;53.118;9.044;2022-11-11T09:14:40;17.17;;;8.98;;
75689;SDS011;64303;53.118;9.044;2022-11-11T09:17:26;17.42;;;10.48;;
75689;SDS011;64303;53.118;9.044;2022-11-11T09:20:11;13.95;;;10.10;;
75689;SDS011;64303;53.118;9.044;2022-11-11T09:22:57;14.18;;;8.82;;
75689;SDS011;64303;53.118;9.044;2022-11-11T09:25:44;15.15;;;9.05;;
75689;SDS011;64303;53.118;9.044;2022-11-11T09:28:30;13.82;;;8.65;;
75689;SDS011;64303;53.118;9.044;2022-11-11T09:31:16;16.10;;;10.93;;
75689;SDS011;64303;53.118;9.044;2022-11-11T09:34:01;13.60;;;9.68;;
75689;SDS011;64303;53.118;9.044;2022-11-11T09:36:47;19.17;;;9.70;;
75689;SDS011;64303;53.118;9.044;2022-11-11T09:39:33;16.30;;;9.77;;
75689;SDS011;64303;53.118;9.044;2022-11-11T09:42:23;19.05;;;11.68;;
75689;SDS011;64303;53.118;9.044;2022-11-11T09:45:18;14.43;;;9.68;;
75689;SDS011;64303;53.118;9.044;2022-11-11T09:48:23;15.10;;;10.23;;
75689;SDS011;64303;53.118;9.044;2022-11-11T09:51:18;21.50;;;11.98;;
75689;SDS011;64303;53.118;9.044;2022-11-11T09:54:07;14.70;;;11.02;;
75689;SDS011;64303;53.118;9.044;2022-11-11T09:56:57;20.92;;;12.00;;
75689;SDS011;64303;53.118;9.044;2022-11-11T09:59:46;20.73;;;12.93;;
75689;SDS011;64303;53.118;9.044;2022-11-11T10:02:33;16.73;;;10.88;;
75689;SDS011;64303;53.118;9.044;2022-11-11T10:05:25;19.33;;;10.57;;
75689;SDS011;64303;53.118;9.044;2022-11-11T10:08:14;15.98;;;11.13;;
75689;SDS011;64303;53.118;9.044;2022-11-11T10:11:01;15.13;;;9.30;;
75689;SDS011;64303;53.118;9.044;2022-11-11T10:13:51;16.40;;;10.20;;
75689;SDS011;64303;53.118;9.044;2022-11-11T10:16:42;16.33;;;8.55;;
75689;SDS011;64303;53.118;9.044;2022-11-11T10:19:32;17.63;;;11.55;;
75689;SDS011;64303;53.118;9.044;2022-11-11T10:22:20;17.63;;;11.75;;
75689;SDS011;64303;53.118;9.044;2022-11-11T10:25:13;16.55;;;9.75;;
75689;SDS011;64303;53.118;9.044;2022-11-11T10:28:05;18.52;;;9.98;;
75689;SDS011;64303;53.118;9.044;2022-11-11T10:30:53;15.48;;;11.43;;
75689;SDS011;64303;53.118;9.044;2022-11-11T10:33:42;15.57;;;10.77;;
75689;SDS011;64303;53.118;9.044;2022-11-11T10:36:30;16.38;;;10.60;;
75689;SDS011;64303;53.118;9.044;2022-11-11T10:39:17;10.50;;;9.30;;
75689;SDS011;64303;53.118;9.044;2022-11-11T10:42:07;15.98;;;10.75;;
75689;SDS011;64303;53.118;9.044;2022-11-11T10:44:57;12.98;;;9.88;;
75689;SDS011;64303;53.118;9.044;2022-11-11T10:47:44;13.77;;;9.68;;
75689;SDS011;64303;53.118;9.044;2022-11-11T10:50:34;12.77;;;9.43;;
75689;SDS011;64303;53.118;9.044;2022-11-11T10:53:21;10.27;;;8.23;;
75689;SDS011;64303;53.118;9.044;2022-11-11T10:56:13;11.10;;;8.05;;
75689;SDS011;64303;53.118;9.044;2022-11-11T10:59:05;11.75;;;8.80;;
75689;SDS011;64303;53.118;9.044;2022-11-11T11:01:56;8.25;;;7.10;;
75689;SDS011;64303;53.118;9.044;2022-11-11T11:04:45;12.52;;;9.93;;
75689;SDS011;64303;53.118;9.044;2022-11-11T11:07:35;10.43;;;8.18;;
75689;SDS011;64303;53.118;9.044;2022-11-11T11:10:25;13.63;;;8.30;;
75689;SDS011;64303;53.118;9.044;2022-11-11T11:13:15;13.18;;;8.93;;
75689;SDS011;64303;53.118;9.044;2022-11-11T11:16:02;11.80;;;8.38;;
75689;SDS011;64303;53.118;9.044;2022-11-11T11:22:03;14.10;;;8.60;;
75689;SDS011;64303;53.118;9.044;2022-11-11T11:24:51;11.38;;;7.85;;
75689;SDS011;64303;53.118;9.044;2022-11-11T11:27:53;12.02;;;7.95;;
75689;SDS011;64303;53.118;9.044;2022-11-11T11:30:57;10.23;;;7.78;;
75689;SDS011;64303;53.118;9.044;2022-11-11T11:33:48;13.95;;;7.13;;
75689;SDS011;64303;53.118;9.044;2022-11-11T11:36:35;9.55;;;6.57;;
75689;SDS011;64303;53.118;9.044;2022-11-11T11:39:30;9.43;;;6.43;;
75689;SDS011;64303;53.118;9.044;2022-11-11T11:42:27;12.82;;;7.65;;
75689;SDS011;64303;53.118;9.044;2022-11-11T11:45:14;10.93;;;7.43;;
75689;SDS011;64303;53.118;9.044;2022-11-11T11:48:06;9.45;;;7.20;;
75689;SDS011;64303;53.118;9.044;2022-11-11T11:51:01;12.23;;;6.82;;
75689;SDS011;64303;53.118;9.044;2022-11-11T11:57:02;8.13;;;5.95;;
75689;SDS011;64303;53.118;9.044;2022-11-11T11:59:51;6.28;;;4.68;;
75689;SDS011;64303;53.118;9.044;2022-11-11T12:02:49;8.30;;;5.63;;
75689;SDS011;64303;53.118;9.044;2022-11-11T12:05:44;9.38;;;5.65;;
75689;SDS011;64303;53.118;9.044;2022-11-11T12:08:36;8.93;;;5.88;;
75689;SDS011;64303;53.118;9.044;2022-11-11T12:11:28;11.52;;;5.43;;
75689;SDS011;64303;53.118;9.044;2022-11-11T12:17:42;7.10;;;6.40;;
75689;SDS011;64303;53.118;9.044;2022-11-11T12:20:33;8.75;;;5.40;;
75689;SDS011;64303;53.118;9.044;2022-11-11T12:23:41;7.40;;;5.40;;
75689;SDS011;64303;53.118;9.044;2022-11-11T12:26:36;7.68;;;5.90;;
75689;SDS011;64303;53.118;9.044;2022-11-11T12:29:30;7.47;;;5.57;;
75689;SDS011;64303;53.118;9.044;2022-11-11T12:32:31;8.73;;;4.80;;
75689;SDS011;64303;53.118;9.044;2022-11-11T12:35:40;6.88;;;4.97;;
75689;SDS011;64303;53.118;9.044;2022-11-11T12:38:48;7.38;;;6.50;;
75689;SDS011;64303;53.118;9.044;2022-11-11T12:41:39;8.07;;;4.30;;
75689;SDS011;64303;53.118;9.044;2022-11-11T12:44:31;9.85;;;3.78;;
75689;SDS011;64303;53.118;9.044;2022-11-11T12:47:23;7.47;;;5.10;;
75689;SDS011;64303;53.118;9.044;2022-11-11T12:50:15;5.90;;;4.80;;
75689;SDS011;64303;53.118;9.044;2022-11-11T12:53:08;6.78;;;3.88;;
75689;SDS011;64303;53.118;9.044;2022-11-11T12:55:59;7.40;;;4.38;;
75689;SDS011;64303;53.118;9.044;2022-11-11T12:58:52;8.43;;;3.88;;
75689;SDS011;64303;53.118;9.044;2022-11-11T13:01:45;7.95;;;3.88;;
75689;SDS011;64303;53.118;9.044;2022-11-11T13:04:40;7.13;;;3.47;;
75689;SDS011;64303;53.118;9.044;2022-11-11T13:07:38;7.28;;;3.88;;
75689;SDS011;64303;53.118;9.044;2022-11-11T13:10:50;8.13;;;4.72;;
75689;SDS011;64303;53.118;9.044;2022-11-11T13:13:40;6.38;;;4.07;;
75689;SDS011;64303;53.118;9.044;2022-11-11T13:16:31;6.65;;;4.63;;
75689;SDS011;64303;53.118;9.044;2022-11-11T13:19:17;6.55;;;4.63;;
75689;SDS011;64303;53.118;9.044;2022-11-11T13:22:07;5.95;;;4.82;;
75689;SDS011;64303;53.118;9.044;2022-11-11T13:25:01;7.03;;;3.45;;
75689;SDS011;64303;53.118;9.044;2022-11-11T13:27:48;5.72;;;4.80;;
75689;SDS011;64303;53.118;9.044;2022-11-11T13:30:40;6.65;;;3.40;;
75689;SDS011;64303;53.118;9.044;2022-11-11T13:33:34;5.50;;;3.33;;
75689;SDS011;64303;53.118;9.044;2022-11-11T13:36:22;8.60;;;4.43;;
75689;SDS011;64303;53.118;9.044;2022-11-11T13:39:18;8.48;;;3.60;;
75689;SDS011;64303;53.118;9.044;2022-11-11T13:42:09;5.57;;;3.72;;
75689;SDS011;64303;53.118;9.044;2022-11-11T13:44:58;6.47;;;3.72;;
75689;SDS011;64303;53.118;9.044;2022-11-11T13:47:44;6.32;;;3.72;;
75689;SDS011;64303;53.118;9.044;2022-11-11T13:50:31;7.47;;;3.97;;
75689;SDS011;64303;53.118;9.044;2022-11-11T13:53:24;5.45;;;3.20;;
75689;SDS011;64303;53.118;9.044;2022-11-11T13:56:11;8.55;;;3.42;;
75689;SDS011;64303;53.118;9.044;2022-11-11T13:59:13;8.27;;;3.55;;
75689;SDS011;64303;53.118;9.044;2022-11-11T14:02:11;8.75;;;3.75;;
75689;SDS011;64303;53.118;9.044;2022-11-11T14:05:14;4.88;;;3.63;;
75689;SDS011;64303;53.118;9.044;2022-11-11T14:08:01;7.65;;;3.90;;
75689;SDS011;64303;53.118;9.044;2022-11-11T14:10:49;6.68;;;3.72;;
75689;SDS011;64303;53.118;9.044;2022-11-11T14:13:38;4.38;;;3.58;;
75689;SDS011;64303;53.118;9.044;2022-11-11T14:19:45;7.60;;;4.45;;
75689;SDS011;64303;53.118;9.044;2022-11-11T14:22:31;6.10;;;3.45;;
75689;SDS011;64303;53.118;9.044;2022-11-11T14:25:19;5.32;;;3.38;;
75689;SDS011;64303;53.118;9.044;2022-11-11T14:28:18;6.97;;;4.90;;
75689;SDS011;64303;53.118;9.044;2022-11-11T14:34:45;8.63;;;4.03;;
75689;SDS011;64303;53.118;9.044;2022-11-11T14:37:50;6.82;;;4.03;;
75689;SDS011;64303;53.118;9.044;2022-11-11T14:40:41;5.97;;;4.47;;
75689;SDS011;64303;53.118;9.044;2022-11-11T14:43:35;7.70;;;4.60;;
75689;SDS011;64303;53.118;9.044;2022-11-11T14:46:21;8.35;;;4.03;;
75689;SDS011;64303;53.118;9.044;2022-11-11T14:49:07;6.75;;;4.53;;
75689;SDS011;64303;53.118;9.044;2022-11-11T14:51:54;9.55;;;3.58;;
75689;SDS011;64303;53.118;9.044;2022-11-11T14:54:42;6.03;;;4.32;;
75689;SDS011;64303;53.118;9.044;2022-11-11T14:57:34;5.38;;;3.85;;
75689;SDS011;64303;53.118;9.044;2022-11-11T15:00:22;5.38;;;3.38;;
75689;SDS011;64303;53.118;9.044;2022-11-11T15:03:09;7.85;;;4.40;;
75689;SDS011;64303;53.118;9.044;2022-11-11T15:05:57;5.95;;;4.20;;
75689;SDS011;64303;53.118;9.044;2022-11-11T15:08:48;7.40;;;3.80;;
75689;SDS011;64303;53.118;9.044;2022-11-11T15:11:37;7.70;;;3.65;;
75689;SDS011;64303;53.118;9.044;2022-11-11T15:14:27;8.30;;;3.53;;
75689;SDS011;64303;53.118;9.044;2022-11-11T15:17:18;6.13;;;3.53;;
75689;SDS011;64303;53.118;9.044;2022-11-11T15:20:18;6.82;;;3.78;;
75689;SDS011;64303;53.118;9.044;2022-11-11T15:23:13;6.82;;;4.22;;
75689;SDS011;64303;53.118;9.044;2022-11-11T15:26:08;5.68;;;3.78;;
75689;SDS011;64303;53.118;9.044;2022-11-11T15:29:07;9.90;;;7.13;;
75689;SDS011;64303;53.118;9.044;2022-11-11T15:32:29;7.85;;;4.05;;
75689;SDS011;64303;53.118;9.044;2022-11-11T15:38:09;9.35;;;4.97;;
75689;SDS011;64303;53.118;9.044;2022-11-11T15:40:56;8.77;;;4.10;;
75689;SDS011;64303;53.118;9.044;2022-11-11T15:43:44;7.95;;;4.22;;
75689;SDS011;64303;53.118;9.044;2022-11-11T15:46:30;6.88;;;3.45;;
75689;SDS011;64303;53.118;9.044;2022-11-11T15:49:35;6.97;;;3.55;;
75689;SDS011;64303;53.118;9.044;2022-11-11T15:52:25;8.35;;;4.00;;
75689;SDS011;64303;53.118;9.044;2022-11-11T15:55:18;7.55;;;4.95;;
75689;SDS011;64303;53.118;9.044;2022-11-11T15:58:09;3.92;;;3.00;;
75689;SDS011;64303;53.118;9.044;2022-11-11T16:00:56;7.30;;;4.68;;
75689;SDS011;64303;53.118;9.044;2022-11-11T16:03:44;11.63;;;5.80;;
75689;SDS011;64303;53.118;9.044;2022-11-11T16:06:29;9.52;;;4.70;;
75689;SDS011;64303;53.118;9.044;2022-11-11T16:09:15;8.57;;;4.70;;
75689;SDS011;64303;53.118;9.044;2022-11-11T16:12:03;8.38;;;5.47;;
75689;SDS011;64303;53.118;9.044;2022-11-11T16:14:50;8.63;;;4.72;;
75689;SDS011;64303;53.118;9.044;2022-11-11T16:17:39;10.52;;;6.53;;
75689;SDS011;64303;53.118;9.044;2022-11-11T16:20:27;6.10;;;4.97;;
75689;SDS011;64303;53.118;9.044;2022-11-11T16:23:16;7.60;;;6.72;;
75689;SDS011;64303;53.118;9.044;2022-11-11T16:26:03;6.38;;;5.10;;
75689;SDS011;64303;53.118;9.044;2022-11-11T16:28:50;7.40;;;5.18;;
75689;SDS011;64303;53.118;9.044;2022-11-11T16:31:37;6.85;;;5.32;;
75689;SDS011;64303;53.118;9.044;2022-11-11T16:34:32;8.80;;;5.05;;
75689;SDS011;64303;53.118;9.044;2022-11-11T16:37:19;8.57;;;5.05;;
75689;SDS011;64303;53.118;9.044;2022-11-11T16:40:24;9.82;;;8.25;;
75689;SDS011;64303;53.118;9.044;2022-11-11T16:43:18;8.85;;;7.40;;
75689;SDS011;64303;53.118;9.044;2022-11-11T16:46:05;10.02;;;9.13;;
75689;SDS011;64303;53.118;9.044;2022-11-11T16:48:52;13.43;;;8.07;;
75689;SDS011;64303;53.118;9.044;2022-11-11T16:51:39;11.15;;;7.25;;
75689;SDS011;64303;53.118;9.044;2022-11-11T16:54:27;10.45;;;6.75;;
75689;SDS011;64303;53.118;9.044;2022-11-11T16:57:14;10.18;;;7.78;;
75689;SDS011;64303;53.118;9.044;2022-11-11T17:00:02;11.60;;;7.03;;
75689;SDS011;64303;53.118;9.044;2022-11-11T17:05:54;9.30;;;7.93;;
75689;SDS011;64303;53.118;9.044;2022-11-11T17:08:42;10.15;;;7.10;;
75689;SDS011;64303;53.118;9.044;2022-11-11T17:11:40;9.50;;;8.50;;
75689;SDS011;64303;53.118;9.044;2022-11-11T17:14:27;11.90;;;7.28;;
75689;SDS011;64303;53.118;9.044;2022-11-11T17:17:13;12.75;;;7.88;;
75689;SDS011;64303;53.118;9.044;2022-11-11T17:20:00;10.05;;;8.48;;
75689;SDS011;64303;53.118;9.044;2022-11-11T17:22:47;9.52;;;7.85;;
75689;SDS011;64303;53.118;9.044;2022-11-11T17:25:34;10.18;;;6.85;;